createdAt,value
2023-03-23T15:59:46.590Z,19.20
2023-03-23T16:02:25.487Z,19.20
2023-03-23T16:04:57.460Z,19.10
2023-03-23T16:07:26.636Z,19.00
2023-03-23T16:09:55.193Z,19.00
2023-03-23T16:12:24.018Z,18.90
2023-03-23T16:14:54.224Z,18.90
2023-03-23T16:17:23.496Z,18.80
2023-03-23T16:19:52.339Z,18.80
2023-03-23T16:22:21.177Z,18.70
2023-03-23T16:24:49.857Z,18.60
2023-03-23T16:27:18.707Z,18.60
2023-03-23T16:30:02.817Z,18.50
2023-03-23T16:35:02.109Z,18.40
2023-03-23T16:37:33.473Z,18.40
2023-03-23T16:40:02.382Z,18.30
2023-03-23T16:42:31.257Z,18.30
2023-03-23T16:44:59.949Z,18.20
2023-03-23T16:47:28.751Z,18.20
2023-03-23T16:49:59.260Z,18.20
2023-03-23T16:52:28.285Z,18.10
2023-03-23T16:54:57.238Z,18.10
2023-03-23T16:57:26.328Z,18.00
2023-03-23T16:59:54.826Z,17.90
2023-03-23T17:02:23.636Z,17.90
2023-03-23T17:04:52.162Z,17.80
2023-03-23T17:07:22.185Z,17.70
2023-03-23T17:09:52.088Z,17.70
2023-03-23T17:12:21.223Z,17.60
2023-03-23T17:14:50.288Z,17.50
2023-03-23T17:17:19.185Z,17.40
2023-03-23T17:19:47.863Z,17.40
2023-03-23T17:22:16.276Z,17.30
2023-03-23T17:24:48.232Z,17.20
2023-03-23T17:27:17.927Z,17.20
2023-03-23T17:29:46.694Z,17.10
2023-03-23T17:32:16.020Z,17.10
2023-03-23T17:34:44.781Z,17.00
2023-03-23T17:37:13.202Z,17.00
2023-03-23T17:39:42.324Z,16.90
2023-03-23T17:42:15.138Z,16.80
2023-03-23T17:44:43.616Z,16.70
2023-03-23T17:47:12.476Z,16.70
2023-03-23T17:49:41.091Z,16.60
2023-03-23T17:52:10.147Z,16.60
2023-03-23T17:54:38.933Z,16.60
2023-03-23T17:57:07.701Z,16.50
2023-03-23T17:59:37.999Z,16.50
2023-03-23T18:02:07.239Z,16.40
2023-03-23T18:04:36.680Z,16.40
2023-03-23T18:07:05.694Z,16.30
2023-03-23T18:09:34.368Z,16.30
2023-03-23T18:12:03.586Z,16.20
2023-03-23T18:14:32.405Z,16.20
2023-03-23T18:17:02.574Z,16.20
2023-03-23T18:19:31.297Z,16.10
2023-03-23T18:21:59.856Z,16.10
2023-03-23T18:24:29.463Z,16.10
2023-03-23T18:27:00.315Z,16.00
2023-03-23T18:29:29.008Z,16.00
2023-03-23T18:31:57.788Z,16.00
2023-03-23T18:34:31.485Z,15.90
2023-03-23T18:37:00.164Z,15.90
2023-03-23T18:39:28.967Z,15.80
2023-03-23T18:41:58.760Z,15.80
2023-03-23T18:44:27.623Z,15.80
2023-03-23T18:46:56.923Z,15.80
2023-03-23T18:49:29.005Z,15.70
2023-03-23T18:51:57.877Z,15.60
2023-03-23T18:54:28.876Z,15.60
2023-03-23T18:57:00.321Z,15.70
2023-03-23T18:59:30.649Z,15.60
2023-03-23T19:01:59.783Z,15.60
2023-03-23T19:04:32.057Z,15.60
2023-03-23T19:07:01.668Z,15.50
2023-03-23T19:09:32.324Z,15.60
2023-03-23T19:12:01.198Z,15.60
2023-03-23T19:14:30.023Z,15.50
2023-03-23T19:16:58.877Z,15.50
2023-03-23T19:19:28.123Z,15.40
2023-03-23T19:21:58.490Z,15.40
2023-03-23T19:24:30.474Z,15.40
2023-03-23T19:26:59.729Z,15.40
2023-03-23T19:32:12.391Z,15.30
2023-03-23T19:34:41.165Z,15.30
2023-03-23T19:37:11.934Z,15.30
2023-03-23T19:39:42.940Z,15.30
2023-03-23T19:42:17.130Z,15.20
2023-03-23T19:44:46.610Z,15.30
2023-03-23T19:47:16.543Z,15.20
2023-03-23T19:52:31.916Z,15.20
2023-03-23T19:55:02.459Z,15.20
2023-03-23T19:57:38.479Z,15.20
2023-03-23T20:00:09.287Z,15.10
2023-03-23T20:02:41.435Z,15.00
2023-03-23T20:05:10.710Z,14.90
2023-03-23T20:07:44.525Z,14.90
2023-03-23T20:13:00.459Z,14.90
2023-03-23T20:15:29.580Z,14.80
2023-03-23T20:17:58.885Z,14.70
2023-03-23T20:20:29.117Z,14.80
2023-03-23T20:22:59.908Z,14.70
2023-03-23T20:25:29.278Z,14.70
2023-03-23T20:27:58.627Z,14.70
2023-03-23T20:30:27.543Z,14.70
2023-03-23T20:33:00.990Z,14.80
2023-03-23T20:35:30.860Z,14.90
2023-03-23T20:38:02.878Z,15.00
2023-03-23T20:40:31.566Z,15.10
2023-03-23T20:43:02.303Z,15.10
2023-03-23T20:45:31.440Z,15.00
2023-03-23T20:48:02.786Z,15.10
2023-03-23T20:50:31.321Z,15.20
2023-03-23T20:53:03.641Z,15.20
2023-03-23T20:55:32.400Z,15.10
2023-03-23T20:58:01.920Z,14.90
2023-03-23T21:03:18.648Z,14.90
2023-03-23T21:05:47.840Z,14.80
2023-03-23T21:08:19.661Z,14.80
2023-03-23T21:10:50.317Z,14.80
2023-03-23T21:13:21.845Z,14.80
2023-03-23T21:15:52.013Z,14.70
2023-03-23T21:18:23.241Z,14.70
2023-03-23T21:20:52.754Z,14.70
2023-03-23T21:23:26.913Z,14.80
2023-03-23T21:25:56.075Z,14.70
2023-03-23T21:28:24.429Z,14.60
2023-03-23T21:30:54.862Z,14.50
2023-03-23T21:33:24.233Z,14.50
2023-03-23T21:35:53.607Z,14.50
2023-03-23T21:38:35.945Z,14.40
2023-03-23T21:41:09.122Z,14.40
2023-03-23T21:43:38.414Z,14.40
2023-03-23T21:46:09.086Z,14.30
2023-03-23T21:48:38.935Z,14.30
2023-03-23T21:51:08.666Z,14.30
2023-03-23T21:53:39.111Z,14.30
2023-03-23T21:56:11.924Z,14.30
2023-03-23T21:58:40.901Z,14.20
2023-03-23T22:01:10.748Z,14.20
2023-03-23T22:03:40.394Z,14.10
2023-03-23T22:06:12.600Z,14.20
2023-03-23T22:08:44.945Z,14.00
2023-03-23T22:11:15.992Z,14.00
2023-03-23T22:13:47.718Z,14.00
2023-03-23T22:16:18.735Z,13.90
2023-03-23T22:18:49.221Z,13.80
2023-03-23T22:21:19.175Z,13.70
2023-03-23T22:23:50.343Z,13.70
2023-03-23T22:26:19.034Z,13.60
2023-03-23T22:28:49.725Z,13.60
2023-03-23T22:31:22.194Z,13.50
2023-03-23T22:33:55.585Z,13.60
2023-03-23T22:36:25.498Z,13.70
2023-03-23T22:38:58.158Z,13.80
2023-03-23T22:41:30.684Z,14.10
2023-03-23T22:43:59.704Z,14.00
2023-03-23T22:46:29.006Z,13.90
2023-03-23T22:48:58.400Z,13.90
2023-03-23T22:51:27.420Z,14.00
2023-03-23T22:53:57.935Z,14.00
2023-03-23T22:56:26.896Z,13.80
2023-03-23T22:58:56.535Z,13.80
2023-03-23T23:01:25.861Z,13.70
2023-03-23T23:03:56.042Z,13.70
2023-03-23T23:06:26.222Z,13.70
2023-03-23T23:08:55.076Z,13.70
2023-03-23T23:11:26.709Z,13.70
2023-03-23T23:13:59.093Z,13.80
2023-03-23T23:16:28.069Z,13.80
2023-03-23T23:18:57.068Z,13.70
2023-03-23T23:21:29.266Z,13.70
2023-03-23T23:23:58.476Z,13.80
2023-03-23T23:26:28.956Z,13.90
2023-03-23T23:28:57.979Z,14.00
2023-03-23T23:31:31.553Z,14.00
2023-03-23T23:34:02.382Z,14.00
2023-03-23T23:36:32.501Z,14.00
2023-03-23T23:39:02.627Z,14.00
2023-03-23T23:41:33.559Z,13.90
2023-03-23T23:44:02.778Z,13.90
2023-03-23T23:46:32.481Z,13.90
2023-03-23T23:49:02.186Z,13.90
2023-03-23T23:51:33.840Z,13.90
2023-03-23T23:54:02.277Z,13.90
2023-03-23T23:56:32.678Z,13.90
2023-03-23T23:59:02.966Z,13.90
